sensor_id;sensor_type;location;lat;lon;timestamp;pressure;altitude;pressure_sealevel;temperature;humidity
17254;BME280;32542;52.832;13.816;2022-08-30T00:02:32;102029.41;;;23.20;56.58
17254;BME280;32542;52.832;13.816;2022-08-30T00:05:35;102018.81;;;23.17;56.54
17254;BME280;32542;52.832;13.816;2022-08-30T00:08:39;102016.22;;;23.15;56.53
17254;BME280;32542;52.832;13.816;2022-08-30T00:11:43;102024.16;;;23.17;56.65
17254;BME280;32542;52.832;13.816;2022-08-30T00:14:46;102017.06;;;23.16;56.50
17254;BME280;32542;52.832;13.816;2022-08-30T00:17:51;102014.38;;;23.16;56.31
17254;BME280;32542;52.832;13.816;2022-08-30T00:20:55;102014.38;;;23.16;56.34
17254;BME280;32542;52.832;13.816;2022-08-30T00:23:57;102012.59;;;23.16;56.50
17254;BME280;32542;52.832;13.816;2022-08-30T00:27:01;102014.34;;;23.17;56.44
17254;BME280;32542;52.832;13.816;2022-08-30T00:30:05;102017.03;;;23.17;56.49
17254;BME280;32542;52.832;13.816;2022-08-30T00:33:11;102026.75;;;23.18;56.35
17254;BME280;32542;52.832;13.816;2022-08-30T00:36:14;102020.53;;;23.18;56.39
17254;BME280;32542;52.832;13.816;2022-08-30T00:39:17;102025.03;;;23.17;56.77
17254;BME280;32542;52.832;13.816;2022-08-30T00:42:21;102021.41;;;23.18;56.63
17254;BME280;32542;52.832;13.816;2022-08-30T00:45:30;102018.81;;;23.17;56.50
17254;BME280;32542;52.832;13.816;2022-08-30T00:48:36;102018.81;;;23.17;56.44
17254;BME280;32542;52.832;13.816;2022-08-30T00:51:41;102037.53;;;23.17;56.56
17254;BME280;32542;52.832;13.816;2022-08-30T00:54:45;102026.91;;;23.15;56.51
17254;BME280;32542;52.832;13.816;2022-08-30T00:57:52;102020.69;;;23.15;56.63
17254;BME280;32542;52.832;13.816;2022-08-30T01:00:57;102024.22;;;23.15;56.39
17254;BME280;32542;52.832;13.816;2022-08-30T01:04:04;102032.28;;;23.14;56.49
17254;BME280;32542;52.832;13.816;2022-08-30T01:07:09;102037.63;;;23.14;56.40
17254;BME280;32542;52.832;13.816;2022-08-30T01:10:14;102038.56;;;23.13;56.54
17254;BME280;32542;52.832;13.816;2022-08-30T01:13:18;102042.16;;;23.12;56.73
17254;BME280;32542;52.832;13.816;2022-08-30T01:16:23;102042.16;;;23.12;56.66
17254;BME280;32542;52.832;13.816;2022-08-30T01:19:35;102038.56;;;23.13;56.64
17254;BME280;32542;52.832;13.816;2022-08-30T01:22:44;102038.56;;;23.13;56.46
17254;BME280;32542;52.832;13.816;2022-08-30T01:25:51;102036.81;;;23.12;56.41
17254;BME280;32542;52.832;13.816;2022-08-30T01:28:57;102036.81;;;23.12;56.51
17254;BME280;32542;52.832;13.816;2022-08-30T01:32:04;102040.44;;;23.11;56.55
17254;BME280;32542;52.832;13.816;2022-08-30T01:35:09;102040.44;;;23.11;56.62
17254;BME280;32542;52.832;13.816;2022-08-30T01:38:13;102038.66;;;23.10;56.48
17254;BME280;32542;52.832;13.816;2022-08-30T01:41:21;102039.63;;;23.09;56.42
17254;BME280;32542;52.832;13.816;2022-08-30T01:44:25;102041.41;;;23.08;56.66
17254;BME280;32542;52.832;13.816;2022-08-30T01:47:28;102041.41;;;23.08;56.39
17254;BME280;32542;52.832;13.816;2022-08-30T01:50:31;102045.84;;;23.09;56.67
17254;BME280;32542;52.832;13.816;2022-08-30T01:53:34;102046.75;;;23.08;56.55
17254;BME280;32542;52.832;13.816;2022-08-30T01:56:39;102047.63;;;23.09;56.29
17254;BME280;32542;52.832;13.816;2022-08-30T01:59:43;102048.50;;;23.09;56.37
17254;BME280;32542;52.832;13.816;2022-08-30T02:02:48;102044.97;;;23.09;56.69
17254;BME280;32542;52.832;13.816;2022-08-30T02:05:52;102047.63;;;23.09;56.60
17254;BME280;32542;52.832;13.816;2022-08-30T02:08:56;102043.19;;;23.08;56.56
17254;BME280;32542;52.832;13.816;2022-08-30T02:12:01;102045.00;;;23.07;56.42
17254;BME280;32542;52.832;13.816;2022-08-30T02:15:05;102035.19;;;23.08;56.60
17254;BME280;32542;52.832;13.816;2022-08-30T02:18:08;102035.19;;;23.08;56.46
17254;BME280;32542;52.832;13.816;2022-08-30T02:21:12;102034.31;;;23.07;56.67
17254;BME280;32542;52.832;13.816;2022-08-30T02:24:15;102034.31;;;23.07;56.59
17254;BME280;32542;52.832;13.816;2022-08-30T02:27:19;102031.63;;;23.07;56.70
17254;BME280;32542;52.832;13.816;2022-08-30T02:30:23;102017.44;;;23.07;56.74
17254;BME280;32542;52.832;13.816;2022-08-30T02:33:26;102018.28;;;23.07;56.76
17254;BME280;32542;52.832;13.816;2022-08-30T02:36:29;102028.06;;;23.08;56.81
17254;BME280;32542;52.832;13.816;2022-08-30T02:39:32;102025.38;;;23.08;56.71
17254;BME280;32542;52.832;13.816;2022-08-30T02:42:37;102028.06;;;23.08;56.57
17254;BME280;32542;52.832;13.816;2022-08-30T02:45:42;102024.47;;;23.09;56.54
17254;BME280;32542;52.832;13.816;2022-08-30T02:48:45;102028.94;;;23.09;56.89
17254;BME280;32542;52.832;13.816;2022-08-30T02:51:48;102015.59;;;23.07;56.79
17254;BME280;32542;52.832;13.816;2022-08-30T02:54:52;102020.94;;;23.07;56.57
17254;BME280;32542;52.832;13.816;2022-08-30T02:57:57;102023.63;;;23.07;56.48
17254;BME280;32542;52.832;13.816;2022-08-30T03:01:00;102024.50;;;23.08;56.72
17254;BME280;32542;52.832;13.816;2022-08-30T03:04:04;102026.34;;;23.06;56.64
17254;BME280;32542;52.832;13.816;2022-08-30T03:07:07;102030.81;;;23.05;56.50
17254;BME280;32542;52.832;13.816;2022-08-30T03:10:10;102028.22;;;23.04;56.71
17254;BME280;32542;52.832;13.816;2022-08-30T03:13:16;102030.06;;;23.02;56.46
17254;BME280;32542;52.832;13.816;2022-08-30T03:16:19;102031.88;;;23.01;56.59
17254;BME280;32542;52.832;13.816;2022-08-30T03:19:24;102033.69;;;23.01;56.75
17254;BME280;32542;52.832;13.816;2022-08-30T03:22:27;102039.03;;;23.01;56.57
17254;BME280;32542;52.832;13.816;2022-08-30T03:25:30;102035.50;;;22.99;56.47
17254;BME280;32542;52.832;13.816;2022-08-30T03:28:35;102041.75;;;22.99;56.74
17254;BME280;32542;52.832;13.816;2022-08-30T03:31:38;102040.84;;;22.99;56.60
17254;BME280;32542;52.832;13.816;2022-08-30T03:34:54;102050.63;;;23.00;56.86
17254;BME280;32542;52.832;13.816;2022-08-30T03:37:57;102040.84;;;22.99;56.48
17254;BME280;32542;52.832;13.816;2022-08-30T03:41:00;102046.19;;;22.99;56.56
17254;BME280;32542;52.832;13.816;2022-08-30T03:44:07;102049.75;;;22.99;56.50
17254;BME280;32542;52.832;13.816;2022-08-30T03:47:10;102048.84;;;23.00;56.52
17254;BME280;32542;52.832;13.816;2022-08-30T03:50:14;102050.63;;;23.00;56.50
17254;BME280;32542;52.832;13.816;2022-08-30T03:53:17;102054.19;;;23.00;56.49
17254;BME280;32542;52.832;13.816;2022-08-30T03:56:20;102052.44;;;22.99;56.71
17254;BME280;32542;52.832;13.816;2022-08-30T03:59:25;102058.66;;;23.00;56.48
17254;BME280;32542;52.832;13.816;2022-08-30T04:02:28;102059.56;;;22.99;56.74
17254;BME280;32542;52.832;13.816;2022-08-30T04:05:31;102051.53;;;22.99;56.73
17254;BME280;32542;52.832;13.816;2022-08-30T04:08:35;102060.50;;;22.98;56.47
17254;BME280;32542;52.832;13.816;2022-08-30T04:11:38;102056.03;;;22.98;56.61
17254;BME280;32542;52.832;13.816;2022-08-30T04:14:43;102056.88;;;22.99;56.74
17254;BME280;32542;52.832;13.816;2022-08-30T04:17:46;102058.66;;;23.00;56.78
17254;BME280;32542;52.832;13.816;2022-08-30T04:20:50;102063.13;;;22.99;56.60
17254;BME280;32542;52.832;13.816;2022-08-30T04:23:54;102057.78;;;22.99;56.83
17254;BME280;32542;52.832;13.816;2022-08-30T04:26:56;102065.84;;;22.98;56.64
17254;BME280;32542;52.832;13.816;2022-08-30T04:30:01;102069.44;;;22.97;56.67
17254;BME280;32542;52.832;13.816;2022-08-30T04:33:05;102072.09;;;22.97;56.69
17254;BME280;32542;52.832;13.816;2022-08-30T04:36:09;102073.06;;;22.96;56.60
17254;BME280;32542;52.832;13.816;2022-08-30T04:39:14;102076.59;;;22.96;56.73
17254;BME280;32542;52.832;13.816;2022-08-30T04:42:17;102081.94;;;22.96;56.83
17254;BME280;32542;52.832;13.816;2022-08-30T04:45:22;102083.75;;;22.96;56.63
17254;BME280;32542;52.832;13.816;2022-08-30T04:48:25;102086.41;;;22.96;56.67
17254;BME280;32542;52.832;13.816;2022-08-30T04:51:28;102090.81;;;22.97;56.56
17254;BME280;32542;52.832;13.816;2022-08-30T04:54:31;102093.53;;;22.95;56.85
17254;BME280;32542;52.832;13.816;2022-08-30T04:57:35;102092.66;;;22.95;56.86
17254;BME280;32542;52.832;13.816;2022-08-30T05:00:42;102090.88;;;22.95;56.64
17254;BME280;32542;52.832;13.816;2022-08-30T05:03:45;102093.47;;;22.97;56.86
17254;BME280;32542;52.832;13.816;2022-08-30T05:06:48;102089.09;;;22.96;56.77
17254;BME280;32542;52.832;13.816;2022-08-30T05:09:51;102090.81;;;22.97;56.73
17254;BME280;32542;52.832;13.816;2022-08-30T05:12:56;102091.63;;;22.99;56.74
17254;BME280;32542;52.832;13.816;2022-08-30T05:16:01;102089.84;;;22.99;56.97
17254;BME280;32542;52.832;13.816;2022-08-30T05:19:05;102088.03;;;23.00;56.77
17254;BME280;32542;52.832;13.816;2022-08-30T05:22:08;102094.28;;;22.99;57.06
17254;BME280;32542;52.832;13.816;2022-08-30T05:25:12;102096.06;;;23.00;56.87
17254;BME280;32542;52.832;13.816;2022-08-30T05:28:15;102104.97;;;22.99;56.98
17254;BME280;32542;52.832;13.816;2022-08-30T05:31:23;102099.63;;;22.99;56.95
17254;BME280;32542;52.832;13.816;2022-08-30T05:34:28;102096.97;;;22.99;57.25
17254;BME280;32542;52.832;13.816;2022-08-30T05:37:32;102110.31;;;22.99;56.97
17254;BME280;32542;52.832;13.816;2022-08-30T05:40:39;102112.16;;;22.98;57.23
17254;BME280;32542;52.832;13.816;2022-08-30T05:43:42;102113.06;;;22.97;57.09
17254;BME280;32542;52.832;13.816;2022-08-30T05:46:47;102110.38;;;22.97;57.20
17254;BME280;32542;52.832;13.816;2022-08-30T05:49:50;102113.94;;;22.98;57.15
17254;BME280;32542;52.832;13.816;2022-08-30T05:52:53;102112.19;;;22.97;57.20
17254;BME280;32542;52.832;13.816;2022-08-30T05:55:56;102117.53;;;22.97;57.34
17254;BME280;32542;52.832;13.816;2022-08-30T05:59:00;102112.19;;;22.97;57.39
17254;BME280;32542;52.832;13.816;2022-08-30T06:02:05;102118.47;;;22.96;57.48
17254;BME280;32542;52.832;13.816;2022-08-30T06:05:09;102108.66;;;22.96;57.46
17254;BME280;32542;52.832;13.816;2022-08-30T06:08:15;102114.00;;;22.96;57.28
17254;BME280;32542;52.832;13.816;2022-08-30T06:11:20;102111.34;;;22.96;57.40
17254;BME280;32542;52.832;13.816;2022-08-30T06:14:24;102109.50;;;22.97;57.41
17254;BME280;32542;52.832;13.816;2022-08-30T06:17:29;102113.13;;;22.96;57.63
17254;BME280;32542;52.832;13.816;2022-08-30T06:20:32;102117.53;;;22.97;57.74
17254;BME280;32542;52.832;13.816;2022-08-30T06:23:35;102121.88;;;22.99;58.21
17254;BME280;32542;52.832;13.816;2022-08-30T06:26:40;102123.59;;;23.02;58.39
17254;BME280;32542;52.832;13.816;2022-08-30T06:29:43;102119.13;;;23.02;58.30
17254;BME280;32542;52.832;13.816;2022-08-30T06:32:48;102124.41;;;23.04;58.40
17254;BME280;32542;52.832;13.816;2022-08-30T06:35:51;102120.81;;;23.05;58.58
17254;BME280;32542;52.832;13.816;2022-08-30T06:39:00;102120.81;;;23.05;58.55
17254;BME280;32542;52.832;13.816;2022-08-30T06:42:03;102118.16;;;23.05;58.63
17254;BME280;32542;52.832;13.816;2022-08-30T06:45:07;102121.66;;;23.05;58.71
17254;BME280;32542;52.832;13.816;2022-08-30T06:48:13;102122.53;;;23.06;58.55
17254;BME280;32542;52.832;13.816;2022-08-30T06:51:18;102122.53;;;23.06;58.34
17254;BME280;32542;52.832;13.816;2022-08-30T06:54:21;102120.81;;;23.05;58.42
17254;BME280;32542;52.832;13.816;2022-08-30T06:57:25;102124.41;;;23.04;58.45
17254;BME280;32542;52.832;13.816;2022-08-30T07:00:28;102124.41;;;23.04;58.46
17254;BME280;32542;52.832;13.816;2022-08-30T07:03:34;102128.84;;;23.05;58.58
17254;BME280;32542;52.832;13.816;2022-08-30T07:06:37;102135.97;;;23.04;58.35
17254;BME280;32542;52.832;13.816;2022-08-30T07:09:40;102141.31;;;23.04;58.39
17254;BME280;32542;52.832;13.816;2022-08-30T07:12:44;102137.75;;;23.04;58.39
17254;BME280;32542;52.832;13.816;2022-08-30T07:15:47;102140.44;;;23.04;58.15
17254;BME280;32542;52.832;13.816;2022-08-30T07:18:51;102149.41;;;23.03;58.31
17254;BME280;32542;52.832;13.816;2022-08-30T07:21:59;102146.72;;;23.03;58.20
17254;BME280;32542;52.832;13.816;2022-08-30T07:25:03;102141.41;;;23.01;58.08
17254;BME280;32542;52.832;13.816;2022-08-30T07:28:08;102145.91;;;23.01;57.80
17254;BME280;32542;52.832;13.816;2022-08-30T07:31:13;102144.16;;;23.00;57.89
17254;BME280;32542;52.832;13.816;2022-08-30T07:34:21;102146.00;;;22.98;57.95
17254;BME280;32542;52.832;13.816;2022-08-30T07:37:28;102147.78;;;22.97;57.92
17254;BME280;32542;52.832;13.816;2022-08-30T07:40:31;102154.94;;;22.97;58.03
17254;BME280;32542;52.832;13.816;2022-08-30T07:43:35;102158.47;;;22.97;57.70
17254;BME280;32542;52.832;13.816;2022-08-30T07:46:39;102165.63;;;22.97;58.02
17254;BME280;32542;52.832;13.816;2022-08-30T07:49:45;102158.53;;;22.96;57.92
17254;BME280;32542;52.832;13.816;2022-08-30T07:52:49;102156.78;;;22.95;58.00
17254;BME280;32542;52.832;13.816;2022-08-30T07:55:52;102161.22;;;22.96;57.84
17254;BME280;32542;52.832;13.816;2022-08-30T07:58:56;102166.56;;;22.96;57.85
17254;BME280;32542;52.832;13.816;2022-08-30T08:01:59;102156.78;;;22.95;57.79
17254;BME280;32542;52.832;13.816;2022-08-30T08:05:05;102169.22;;;22.96;58.00
17254;BME280;32542;52.832;13.816;2022-08-30T08:08:08;102167.44;;;22.96;57.70
17254;BME280;32542;52.832;13.816;2022-08-30T08:11:14;102176.38;;;22.95;57.69
17254;BME280;32542;52.832;13.816;2022-08-30T08:14:17;102178.13;;;22.96;57.69
17254;BME280;32542;52.832;13.816;2022-08-30T08:17:22;102175.47;;;22.96;57.71
17254;BME280;32542;52.832;13.816;2022-08-30T08:20:27;102181.72;;;22.95;57.64
17254;BME280;32542;52.832;13.816;2022-08-30T08:23:30;102177.25;;;22.96;57.73
17254;BME280;32542;52.832;13.816;2022-08-30T08:26:33;102180.81;;;22.95;58.17
17254;BME280;32542;52.832;13.816;2022-08-30T08:29:37;102187.94;;;22.96;58.28
17254;BME280;32542;52.832;13.816;2022-08-30T08:32:40;102183.50;;;22.95;58.26
17254;BME280;32542;52.832;13.816;2022-08-30T08:35:44;102183.50;;;22.95;58.28
17254;BME280;32542;52.832;13.816;2022-08-30T08:38:48;102187.94;;;22.96;58.32
17254;BME280;32542;52.832;13.816;2022-08-30T08:41:59;102191.50;;;22.95;58.34
17254;BME280;32542;52.832;13.816;2022-08-30T08:45:11;102186.16;;;22.96;58.12
17254;BME280;32542;52.832;13.816;2022-08-30T08:48:25;102184.31;;;22.97;58.10
17254;BME280;32542;52.832;13.816;2022-08-30T08:51:53;102185.13;;;22.99;57.99
17254;BME280;32542;52.832;13.816;2022-08-30T08:55:17;102182.47;;;22.99;58.22
17254;BME280;32542;52.832;13.816;2022-08-30T08:58:24;102186.06;;;22.98;58.11
17254;BME280;32542;52.832;13.816;2022-08-30T09:01:29;102178.94;;;22.98;57.83
17254;BME280;32542;52.832;13.816;2022-08-30T09:04:36;102190.47;;;22.99;58.15
17254;BME280;32542;52.832;13.816;2022-08-30T09:07:44;102193.16;;;22.99;57.88
17254;BME280;32542;52.832;13.816;2022-08-30T09:10:53;102187.81;;;22.99;58.09
17254;BME280;32542;52.832;13.816;2022-08-30T09:13:57;102193.16;;;22.99;58.16
17254;BME280;32542;52.832;13.816;2022-08-30T09:17:04;102194.97;;;22.98;57.97
17254;BME280;32542;52.832;13.816;2022-08-30T09:20:08;102196.75;;;22.98;58.24
17254;BME280;32542;52.832;13.816;2022-08-30T09:23:24;102197.59;;;23.00;58.28
17254;BME280;32542;52.832;13.816;2022-08-30T09:26:35;102194.91;;;23.00;58.32
17254;BME280;32542;52.832;13.816;2022-08-30T09:29:49;102190.47;;;22.99;58.76
17254;BME280;32542;52.832;13.816;2022-08-30T09:32:54;102195.81;;;22.99;58.43
17254;BME280;32542;52.832;13.816;2022-08-30T09:36:11;102191.34;;;22.99;58.17
17254;BME280;32542;52.832;13.816;2022-08-30T09:39:19;102187.81;;;22.99;58.04
17254;BME280;32542;52.832;13.816;2022-08-30T09:42:28;102188.66;;;23.01;58.26
17254;BME280;32542;52.832;13.816;2022-08-30T09:45:35;102187.78;;;23.00;58.18
17254;BME280;32542;52.832;13.816;2022-08-30T09:48:40;102190.38;;;23.02;58.01
17254;BME280;32542;52.832;13.816;2022-08-30T09:51:49;102182.38;;;23.02;58.07
17254;BME280;32542;52.832;13.816;2022-08-30T09:55:14;102186.84;;;23.01;57.74
17254;BME280;32542;52.832;13.816;2022-08-30T09:58:28;102183.25;;;23.02;57.77
17254;BME280;32542;52.832;13.816;2022-08-30T10:01:36;102179.69;;;23.02;57.80
17254;BME280;32542;52.832;13.816;2022-08-30T10:04:48;102170.78;;;23.03;57.83
17254;BME280;32542;52.832;13.816;2022-08-30T10:08:01;102178.78;;;23.03;57.55
17254;BME280;32542;52.832;13.816;2022-08-30T10:11:15;102174.34;;;23.02;57.82
17254;BME280;32542;52.832;13.816;2022-08-30T10:14:32;102172.50;;;23.04;57.76
17254;BME280;32542;52.832;13.816;2022-08-30T10:17:46;102175.19;;;23.04;57.67
17254;BME280;32542;52.832;13.816;2022-08-30T10:20:57;102167.16;;;23.04;57.68
17254;BME280;32542;52.832;13.816;2022-08-30T10:24:09;102168.09;;;23.03;57.68
17254;BME280;32542;52.832;13.816;2022-08-30T10:27:25;102168.94;;;23.03;57.70
17254;BME280;32542;52.832;13.816;2022-08-30T10:30:35;102165.44;;;23.03;57.63
17254;BME280;32542;52.832;13.816;2022-08-30T10:33:44;102163.66;;;23.02;57.37
17254;BME280;32542;52.832;13.816;2022-08-30T10:36:53;102169.91;;;23.02;57.27
17254;BME280;32542;52.832;13.816;2022-08-30T10:40:02;102171.69;;;23.02;57.23
17254;BME280;32542;52.832;13.816;2022-08-30T10:43:32;102162.78;;;23.01;57.45
17254;BME280;32542;52.832;13.816;2022-08-30T10:46:47;102165.47;;;23.01;57.24
17254;BME280;32542;52.832;13.816;2022-08-30T10:49:59;102165.53;;;23.00;56.88
17254;BME280;32542;52.832;13.816;2022-08-30T10:53:09;102173.53;;;23.00;56.93
17254;BME280;32542;52.832;13.816;2022-08-30T10:56:18;102174.44;;;22.99;56.93
17254;BME280;32542;52.832;13.816;2022-08-30T10:59:23;102169.09;;;22.99;56.74
17254;BME280;32542;52.832;13.816;2022-08-30T11:03:13;102175.31;;;23.01;56.86
17254;BME280;32542;52.832;13.816;2022-08-30T11:06:26;102173.47;;;23.01;57.30
17254;BME280;32542;52.832;13.816;2022-08-30T11:09:48;102177.03;;;23.02;57.23
17254;BME280;32542;52.832;13.816;2022-08-30T11:12:59;102186.81;;;23.03;57.44
17254;BME280;32542;52.832;13.816;2022-08-30T11:16:06;102185.03;;;23.02;57.29
17254;BME280;32542;52.832;13.816;2022-08-30T11:19:14;102183.31;;;23.01;57.38
17254;BME280;32542;52.832;13.816;2022-08-30T11:22:24;102187.72;;;23.02;57.33
17254;BME280;32542;52.832;13.816;2022-08-30T11:25:47;102180.66;;;23.01;57.13
17254;BME280;32542;52.832;13.816;2022-08-30T11:29:03;102180.66;;;22.99;56.97
17254;BME280;32542;52.832;13.816;2022-08-30T11:36:00;102167.28;;;23.01;57.09
17254;BME280;32542;52.832;13.816;2022-08-30T11:39:05;102177.97;;;23.01;57.23
17254;BME280;32542;52.832;13.816;2022-08-30T11:42:11;102176.16;;;23.01;57.31
17254;BME280;32542;52.832;13.816;2022-08-30T11:45:46;102183.31;;;23.01;57.26
17254;BME280;32542;52.832;13.816;2022-08-30T11:48:59;102173.47;;;23.01;57.09
17254;BME280;32542;52.832;13.816;2022-08-30T11:52:24;102161.94;;;23.01;57.23
17254;BME280;32542;52.832;13.816;2022-08-30T11:55:46;102164.63;;;23.01;57.05
17254;BME280;32542;52.832;13.816;2022-08-30T11:58:56;102170.88;;;23.00;57.18
17254;BME280;32542;52.832;13.816;2022-08-30T12:02:02;102178.88;;;23.00;57.18
17254;BME280;32542;52.832;13.816;2022-08-30T12:05:48;102176.22;;;23.00;57.10
17254;BME280;32542;52.832;13.816;2022-08-30T12:08:52;102176.22;;;23.00;57.09
17254;BME280;32542;52.832;13.816;2022-08-30T12:12:04;102178.94;;;22.98;57.29
17254;BME280;32542;52.832;13.816;2022-08-30T12:18:51;102179.78;;;22.99;57.23
17254;BME280;32542;52.832;13.816;2022-08-30T12:22:00;102173.59;;;22.98;57.20
17254;BME280;32542;52.832;13.816;2022-08-30T12:25:13;102181.56;;;23.00;57.38
17254;BME280;32542;52.832;13.816;2022-08-30T12:28:21;102181.56;;;23.00;57.45
17254;BME280;32542;52.832;13.816;2022-08-30T12:31:26;102182.44;;;23.00;57.18
17254;BME280;32542;52.832;13.816;2022-08-30T12:34:32;102183.31;;;23.01;57.18
17254;BME280;32542;52.832;13.816;2022-08-30T12:37:38;102181.56;;;23.00;57.27
17254;BME280;32542;52.832;13.816;2022-08-30T12:40:52;102180.66;;;23.01;57.23
17254;BME280;32542;52.832;13.816;2022-08-30T12:43:57;102170.88;;;23.00;57.32
17254;BME280;32542;52.832;13.816;2022-08-30T12:47:04;102170.88;;;23.00;57.19
17254;BME280;32542;52.832;13.816;2022-08-30T12:50:08;102170.88;;;23.00;57.30
17254;BME280;32542;52.832;13.816;2022-08-30T12:53:24;102165.53;;;23.00;57.34
17254;BME280;32542;52.832;13.816;2022-08-30T12:56:44;102170.88;;;23.00;57.21
17254;BME280;32542;52.832;13.816;2022-08-30T12:59:52;102174.44;;;22.99;57.26
17254;BME280;32542;52.832;13.816;2022-08-30T13:03:04;102162.03;;;22.98;57.44
17254;BME280;32542;52.832;13.816;2022-08-30T13:06:36;102162.84;;;23.00;57.03
17254;BME280;32542;52.832;13.816;2022-08-30T13:09:41;102154.03;;;22.98;57.28
17254;BME280;32542;52.832;13.816;2022-08-30T13:13:00;102151.34;;;22.98;57.18
17254;BME280;32542;52.832;13.816;2022-08-30T13:19:32;102146.00;;;22.98;57.25
17254;BME280;32542;52.832;13.816;2022-08-30T13:22:37;102146.00;;;22.98;57.09
17254;BME280;32542;52.832;13.816;2022-08-30T13:25:42;102136.22;;;22.97;57.12
17254;BME280;32542;52.832;13.816;2022-08-30T13:28:48;102133.56;;;22.97;57.28
17254;BME280;32542;52.832;13.816;2022-08-30T13:31:52;102140.66;;;22.98;57.19
17254;BME280;32542;52.832;13.816;2022-08-30T13:34:55;102133.56;;;22.97;57.13
17254;BME280;32542;52.832;13.816;2022-08-30T13:37:59;102128.19;;;22.98;57.03
17254;BME280;32542;52.832;13.816;2022-08-30T13:41:05;102126.41;;;22.97;57.01
17254;BME280;32542;52.832;13.816;2022-08-30T13:44:11;102124.63;;;22.98;57.09
17254;BME280;32542;52.832;13.816;2022-08-30T13:47:17;102124.63;;;22.98;56.73
17254;BME280;32542;52.832;13.816;2022-08-30T13:50:38;102125.50;;;22.98;56.73
17254;BME280;32542;52.832;13.816;2022-08-30T13:53:41;102121.00;;;22.99;56.83
17254;BME280;32542;52.832;13.816;2022-08-30T13:57:01;102118.34;;;22.99;56.69
17254;BME280;32542;52.832;13.816;2022-08-30T14:00:06;102112.09;;;23.00;56.81
17254;BME280;32542;52.832;13.816;2022-08-30T14:03:13;102117.44;;;23.00;56.14
17254;BME280;32542;52.832;13.816;2022-08-30T14:06:17;102114.81;;;22.98;56.42
17254;BME280;32542;52.832;13.816;2022-08-30T14:09:34;102119.28;;;22.98;56.42
17254;BME280;32542;52.832;13.816;2022-08-30T14:12:39;102123.75;;;22.97;56.05
17254;BME280;32542;52.832;13.816;2022-08-30T14:16:06;102122.88;;;22.97;56.26
17254;BME280;32542;52.832;13.816;2022-08-30T14:19:29;102117.53;;;22.97;56.20
17254;BME280;32542;52.832;13.816;2022-08-30T14:22:32;102122.03;;;22.96;56.21
17254;BME280;32542;52.832;13.816;2022-08-30T14:25:35;102122.88;;;22.97;55.39
17254;BME280;32542;52.832;13.816;2022-08-30T14:28:43;102121.22;;;22.94;55.73
17254;BME280;32542;52.832;13.816;2022-08-30T14:31:52;102117.66;;;22.94;56.09
17254;BME280;32542;52.832;13.816;2022-08-30T14:34:55;102123.00;;;22.94;56.06
17254;BME280;32542;52.832;13.816;2022-08-30T14:37:58;102123.00;;;22.94;56.09
17254;BME280;32542;52.832;13.816;2022-08-30T14:41:02;102126.34;;;22.99;54.47
17254;BME280;32542;52.832;13.816;2022-08-30T14:44:07;102117.53;;;22.97;55.65
17254;BME280;32542;52.832;13.816;2022-08-30T14:47:11;102123.75;;;22.97;55.69
17254;BME280;32542;52.832;13.816;2022-08-30T14:50:14;102122.03;;;22.96;55.57
17254;BME280;32542;52.832;13.816;2022-08-30T14:53:18;102128.22;;;22.97;56.03
17254;BME280;32542;52.832;13.816;2022-08-30T14:56:22;102120.19;;;22.97;55.95
17254;BME280;32542;52.832;13.816;2022-08-30T14:59:27;102114.84;;;22.97;56.04
17254;BME280;32542;52.832;13.816;2022-08-30T15:02:30;102113.06;;;22.97;55.99
17254;BME280;32542;52.832;13.816;2022-08-30T15:05:33;102114.84;;;22.97;55.98
17254;BME280;32542;52.832;13.816;2022-08-30T15:08:37;102104.16;;;22.97;55.95
17254;BME280;32542;52.832;13.816;2022-08-30T15:11:40;102114.84;;;22.97;55.73
17254;BME280;32542;52.832;13.816;2022-08-30T15:14:46;102117.53;;;22.97;55.56
17254;BME280;32542;52.832;13.816;2022-08-30T15:17:49;102112.19;;;22.97;55.72
17254;BME280;32542;52.832;13.816;2022-08-30T15:20:53;102114.84;;;22.97;55.53
17254;BME280;32542;52.832;13.816;2022-08-30T15:23:57;102110.31;;;22.99;54.87
17254;BME280;32542;52.832;13.816;2022-08-30T15:27:02;102111.19;;;22.99;55.00
17254;BME280;32542;52.832;13.816;2022-08-30T15:30:10;102110.22;;;23.02;55.10
17254;BME280;32542;52.832;13.816;2022-08-30T15:33:15;102104.88;;;23.02;54.94
17254;BME280;32542;52.832;13.816;2022-08-30T15:36:18;102100.44;;;23.02;54.24
17254;BME280;32542;52.832;13.816;2022-08-30T15:39:23;102103.09;;;23.02;54.67
17254;BME280;32542;52.832;13.816;2022-08-30T15:42:26;102099.53;;;23.02;54.78
17254;BME280;32542;52.832;13.816;2022-08-30T15:45:31;102103.97;;;23.03;54.75
17254;BME280;32542;52.832;13.816;2022-08-30T15:48:34;102102.97;;;23.05;54.83
17254;BME280;32542;52.832;13.816;2022-08-30T15:51:47;102105.63;;;23.05;54.81
17254;BME280;32542;52.832;13.816;2022-08-30T15:54:55;102098.50;;;23.06;54.75
17254;BME280;32542;52.832;13.816;2022-08-30T15:57:58;102101.19;;;23.06;54.61
17254;BME280;32542;52.832;13.816;2022-08-30T16:01:05;102107.34;;;23.08;54.78
17254;BME280;32542;52.832;13.816;2022-08-30T16:04:09;102099.31;;;23.08;54.90
17254;BME280;32542;52.832;13.816;2022-08-30T16:07:12;102091.31;;;23.08;54.78
17254;BME280;32542;52.832;13.816;2022-08-30T16:10:17;102101.06;;;23.09;54.83
17254;BME280;32542;52.832;13.816;2022-08-30T16:13:20;102094.75;;;23.11;54.54
17254;BME280;32542;52.832;13.816;2022-08-30T16:16:25;102097.47;;;23.10;54.37